Terminal Aerodrome Forecast
Issued by NWS Memphis, TN

Home | Current Version | Previous Version | Text Only | Print | Product List | Glossary On
Versions: 1 2 3 4 5 6 7 8 9 10 11 12 13 14 15 16 17 18 19 20 21 22 23 24 25 26 27
000
FTUS44 KMEG 190613 AAA
TAFMEM
TAF AMD
KMEM 190613Z 1906/2006 06004KT P6SM SCT022 OVC040
     FM191000 05005KT 5SM BR BKN015 OVC022
     FM191200 05005KT P6SM OVC010
     FM191500 06006KT P6SM OVC015
     FM192100 02007KT P6SM VCSH OVC025
      TEMPO 2000/2004 -RA=

USA.gov is the U.S. government's official web portal to all federal, state and local government web resources and services.